Terminal Aerodrome Forecast
Issued by NWS

Home | Current Version | Previous Version | Text Only | Print | Product List | Glossary On
Versions: 1 2 3 4 5 6 7 8 9 10 11 12 13 14 15 16 17 18 19 20 21 22 23
000
FTUS45 KBOI 281120
TAFJER
TAF
KJER 281120Z 2812/2912 20008KT P6SM SKC
     FM281500 24020G30KT P6SM SCT040 BKN100
     FM281800 25025G35KT P6SM SCT060 BKN200
     FM290300 24010KT P6SM SKC=

USA.gov is the U.S. government's official web portal to all federal, state and local government web resources and services.